Warm River, Idaho
Current Conditions -  °F | °C
As of 12:20 AM on Sunday 23 Nov 2014 (Local Time) from KDIJ Reporting Station
Light Snow Light Snow  
Wind Chill: 16°   Ceiling: 100
Heat Index: 25°   Visibility: 3mi
Dew Point: 21°   Wind: 8mph
Humidity: 86%   Direction: 90°E
Pressure: 29.82"   Gusts: NA
Location:  44.0126°N, 111.37°W
Report Text: KDIJ 230720Z AUTO 09007KT 3SM -SN BR BKN001 BKN011 OVC029 M04/M06 A2982 RMK AO2 BKN V SCT P0000
Loading
Personal Weather Stations






























Interactive Weather Map New forecast layout! Learn more

10-Day Weather Forecast

Advertisements
Track Severe Weather on mobile